sensor_id;sensor_type;location;lat;lon;timestamp;temperature;humidity
42615;DHT22;28754;47.700;7.924;2023-04-03T03:35:36;8.60;99.90
42615;DHT22;28754;47.700;7.924;2023-04-03T03:38:36;3.80;99.90
42615;DHT22;28754;47.700;7.924;2023-04-03T03:41:30;3.70;99.90
42615;DHT22;28754;47.700;7.924;2023-04-03T03:44:28;3.70;99.90
42615;DHT22;28754;47.700;7.924;2023-04-03T03:47:25;3.70;99.90
42615;DHT22;28754;47.700;7.924;2023-04-03T03:50:18;3.70;99.90
42615;DHT22;28754;47.700;7.924;2023-04-03T03:53:15;3.70;99.90
42615;DHT22;28754;47.700;7.924;2023-04-03T03:56:12;3.80;99.90
42615;DHT22;28754;47.700;7.924;2023-04-03T03:59:02;3.70;99.90
42615;DHT22;28754;47.700;7.924;2023-04-03T04:02:00;3.80;99.90
42615;DHT22;28754;47.700;7.924;2023-04-03T04:04:48;3.90;99.90
42615;DHT22;28754;47.700;7.924;2023-04-03T04:07:35;3.90;99.90
42615;DHT22;28754;47.700;7.924;2023-04-03T04:10:22;3.80;99.90
42615;DHT22;28754;47.700;7.924;2023-04-03T04:13:10;3.90;99.90
42615;DHT22;28754;47.700;7.924;2023-04-03T04:15:56;3.80;99.90
42615;DHT22;28754;47.700;7.924;2023-04-03T04:18:43;3.80;99.90
42615;DHT22;28754;47.700;7.924;2023-04-03T04:21:31;3.70;99.90
42615;DHT22;28754;47.700;7.924;2023-04-03T04:24:18;3.60;99.90
42615;DHT22;28754;47.700;7.924;2023-04-03T04:27:05;3.60;99.90
42615;DHT22;28754;47.700;7.924;2023-04-03T04:29:53;3.40;99.90
42615;DHT22;28754;47.700;7.924;2023-04-03T04:32:41;3.40;99.90
42615;DHT22;28754;47.700;7.924;2023-04-03T04:35:28;3.40;99.90
42615;DHT22;28754;47.700;7.924;2023-04-03T04:38:15;3.30;99.90
42615;DHT22;28754;47.700;7.924;2023-04-03T04:41:02;3.30;99.90
42615;DHT22;28754;47.700;7.924;2023-04-03T04:43:50;3.30;99.90
42615;DHT22;28754;47.700;7.924;2023-04-03T04:46:37;3.20;99.90
42615;DHT22;28754;47.700;7.924;2023-04-03T04:49:25;3.20;99.90
42615;DHT22;28754;47.700;7.924;2023-04-03T04:52:13;3.20;99.90
42615;DHT22;28754;47.700;7.924;2023-04-03T04:55:01;3.10;99.90
42615;DHT22;28754;47.700;7.924;2023-04-03T04:57:48;3.00;99.90
42615;DHT22;28754;47.700;7.924;2023-04-03T05:00:38;3.00;99.90
42615;DHT22;28754;47.700;7.924;2023-04-03T05:03:26;3.00;99.90
42615;DHT22;28754;47.700;7.924;2023-04-03T05:06:13;2.90;99.90
42615;DHT22;28754;47.700;7.924;2023-04-03T05:09:00;2.90;99.90
42615;DHT22;28754;47.700;7.924;2023-04-03T05:11:50;2.90;99.90
42615;DHT22;28754;47.700;7.924;2023-04-03T05:14:46;2.90;99.90
42615;DHT22;28754;47.700;7.924;2023-04-03T05:17:36;2.80;99.90
42615;DHT22;28754;47.700;7.924;2023-04-03T05:20:27;2.80;99.90
42615;DHT22;28754;47.700;7.924;2023-04-03T05:23:47;2.80;99.90
42615;DHT22;28754;47.700;7.924;2023-04-03T05:26:34;2.70;99.90
42615;DHT22;28754;47.700;7.924;2023-04-03T05:29:27;2.80;99.90
42615;DHT22;28754;47.700;7.924;2023-04-03T05:32:17;2.70;99.90
42615;DHT22;28754;47.700;7.924;2023-04-03T05:35:08;2.80;99.90
42615;DHT22;28754;47.700;7.924;2023-04-03T05:37:56;2.70;99.90
42615;DHT22;28754;47.700;7.924;2023-04-03T05:40:43;2.80;99.90
42615;DHT22;28754;47.700;7.924;2023-04-03T05:43:31;2.80;99.90
42615;DHT22;28754;47.700;7.924;2023-04-03T05:46:19;2.80;99.90
42615;DHT22;28754;47.700;7.924;2023-04-03T05:49:10;2.80;99.90
42615;DHT22;28754;47.700;7.924;2023-04-03T05:51:58;2.70;99.90
42615;DHT22;28754;47.700;7.924;2023-04-03T05:54:48;2.70;99.90
42615;DHT22;28754;47.700;7.924;2023-04-03T05:57:41;2.70;99.90
42615;DHT22;28754;47.700;7.924;2023-04-03T06:00:28;2.70;99.90
42615;DHT22;28754;47.700;7.924;2023-04-03T06:03:21;2.80;99.90
42615;DHT22;28754;47.700;7.924;2023-04-03T06:06:07;2.90;99.90
42615;DHT22;28754;47.700;7.924;2023-04-03T06:08:58;2.90;99.90
42615;DHT22;28754;47.700;7.924;2023-04-03T06:11:45;2.90;99.90
42615;DHT22;28754;47.700;7.924;2023-04-03T06:14:32;2.90;99.90
42615;DHT22;28754;47.700;7.924;2023-04-03T06:17:21;3.00;99.90
42615;DHT22;28754;47.700;7.924;2023-04-03T06:20:10;2.90;99.90
42615;DHT22;28754;47.700;7.924;2023-04-03T06:22:58;3.00;99.90
42615;DHT22;28754;47.700;7.924;2023-04-03T06:25:48;3.00;99.90
42615;DHT22;28754;47.700;7.924;2023-04-03T06:28:34;2.90;99.90
42615;DHT22;28754;47.700;7.924;2023-04-03T06:31:22;2.90;99.90
42615;DHT22;28754;47.700;7.924;2023-04-03T06:34:08;2.90;99.90
42615;DHT22;28754;47.700;7.924;2023-04-03T06:36:55;2.80;99.90
42615;DHT22;28754;47.700;7.924;2023-04-03T06:39:43;2.80;99.90
42615;DHT22;28754;47.700;7.924;2023-04-03T06:42:30;2.90;99.90
42615;DHT22;28754;47.700;7.924;2023-04-03T06:45:27;2.80;99.90
42615;DHT22;28754;47.700;7.924;2023-04-03T06:48:13;2.80;99.90
42615;DHT22;28754;47.700;7.924;2023-04-03T06:51:00;2.80;99.90
42615;DHT22;28754;47.700;7.924;2023-04-03T06:53:48;2.90;99.90
42615;DHT22;28754;47.700;7.924;2023-04-03T06:56:37;3.00;99.90
42615;DHT22;28754;47.700;7.924;2023-04-03T06:59:24;3.00;99.90
42615;DHT22;28754;47.700;7.924;2023-04-03T07:02:11;3.10;99.90
42615;DHT22;28754;47.700;7.924;2023-04-03T07:05:30;3.00;99.90
42615;DHT22;28754;47.700;7.924;2023-04-03T07:08:48;3.10;99.90
42615;DHT22;28754;47.700;7.924;2023-04-03T07:11:35;3.10;99.90
42615;DHT22;28754;47.700;7.924;2023-04-03T07:14:22;3.10;99.90
42615;DHT22;28754;47.700;7.924;2023-04-03T07:17:27;3.00;99.90
42615;DHT22;28754;47.700;7.924;2023-04-03T07:20:23;3.00;99.90
42615;DHT22;28754;47.700;7.924;2023-04-03T07:23:27;3.00;99.90
42615;DHT22;28754;47.700;7.924;2023-04-03T07:26:14;2.90;99.90
42615;DHT22;28754;47.700;7.924;2023-04-03T07:29:03;3.00;99.90
42615;DHT22;28754;47.700;7.924;2023-04-03T07:31:50;2.90;99.90
42615;DHT22;28754;47.700;7.924;2023-04-03T07:34:37;2.80;99.90
42615;DHT22;28754;47.700;7.924;2023-04-03T07:37:27;2.80;99.90
42615;DHT22;28754;47.700;7.924;2023-04-03T07:40:14;2.80;99.90
42615;DHT22;28754;47.700;7.924;2023-04-03T07:43:01;2.80;99.90
42615;DHT22;28754;47.700;7.924;2023-04-03T07:45:57;2.90;99.90
42615;DHT22;28754;47.700;7.924;2023-04-03T07:48:45;3.20;99.90
42615;DHT22;28754;47.700;7.924;2023-04-03T07:51:32;3.20;99.90
42615;DHT22;28754;47.700;7.924;2023-04-03T07:54:18;3.20;99.90
42615;DHT22;28754;47.700;7.924;2023-04-03T07:57:05;3.30;99.90
42615;DHT22;28754;47.700;7.924;2023-04-03T07:59:52;3.30;99.90
42615;DHT22;28754;47.700;7.924;2023-04-03T08:02:40;3.30;99.90
42615;DHT22;28754;47.700;7.924;2023-04-03T08:05:27;3.30;99.90
42615;DHT22;28754;47.700;7.924;2023-04-03T08:08:16;3.40;99.90
42615;DHT22;28754;47.700;7.924;2023-04-03T08:11:05;3.60;99.90
42615;DHT22;28754;47.700;7.924;2023-04-03T08:13:54;3.60;99.90
42615;DHT22;28754;47.700;7.924;2023-04-03T08:16:43;3.40;99.90
42615;DHT22;28754;47.700;7.924;2023-04-03T08:19:31;3.20;99.90
42615;DHT22;28754;47.700;7.924;2023-04-03T08:22:21;3.20;99.90
42615;DHT22;28754;47.700;7.924;2023-04-03T08:25:08;3.50;99.90
42615;DHT22;28754;47.700;7.924;2023-04-03T08:27:56;3.70;99.90
42615;DHT22;28754;47.700;7.924;2023-04-03T08:30:52;3.60;99.90
42615;DHT22;28754;47.700;7.924;2023-04-03T08:33:39;3.50;99.90
42615;DHT22;28754;47.700;7.924;2023-04-03T08:36:28;3.80;99.90
42615;DHT22;28754;47.700;7.924;2023-04-03T08:39:16;3.70;99.90
42615;DHT22;28754;47.700;7.924;2023-04-03T08:42:30;3.80;99.90
42615;DHT22;28754;47.700;7.924;2023-04-03T08:48:41;4.10;99.90
42615;DHT22;28754;47.700;7.924;2023-04-03T08:51:30;3.90;99.90
42615;DHT22;28754;47.700;7.924;2023-04-03T08:54:30;3.90;99.90
42615;DHT22;28754;47.700;7.924;2023-04-03T08:57:41;4.20;99.90
42615;DHT22;28754;47.700;7.924;2023-04-03T09:00:53;3.80;99.90
42615;DHT22;28754;47.700;7.924;2023-04-03T09:03:48;3.90;99.90
42615;DHT22;28754;47.700;7.924;2023-04-03T09:06:40;3.80;99.90
42615;DHT22;28754;47.700;7.924;2023-04-03T09:09:42;3.90;99.90
42615;DHT22;28754;47.700;7.924;2023-04-03T09:12:46;4.00;99.90
42615;DHT22;28754;47.700;7.924;2023-04-03T09:15:40;4.30;99.90
42615;DHT22;28754;47.700;7.924;2023-04-03T09:18:41;4.40;99.90
42615;DHT22;28754;47.700;7.924;2023-04-03T09:21:39;4.00;99.90
42615;DHT22;28754;47.700;7.924;2023-04-03T09:24:31;3.30;99.90
42615;DHT22;28754;47.700;7.924;2023-04-03T09:27:19;3.00;99.90
42615;DHT22;28754;47.700;7.924;2023-04-03T09:30:16;2.80;99.90
42615;DHT22;28754;47.700;7.924;2023-04-03T09:33:05;3.30;99.90
42615;DHT22;28754;47.700;7.924;2023-04-03T09:35:53;3.80;99.90
42615;DHT22;28754;47.700;7.924;2023-04-03T09:39:14;4.30;99.90
42615;DHT22;28754;47.700;7.924;2023-04-03T09:42:30;4.90;99.90
42615;DHT22;28754;47.700;7.924;2023-04-03T09:45:35;4.90;99.90
42615;DHT22;28754;47.700;7.924;2023-04-03T09:48:26;5.20;99.90
42615;DHT22;28754;47.700;7.924;2023-04-03T09:51:39;5.00;99.90
42615;DHT22;28754;47.700;7.924;2023-04-03T09:54:42;4.70;99.90
42615;DHT22;28754;47.700;7.924;2023-04-03T09:57:33;4.30;99.90
42615;DHT22;28754;47.700;7.924;2023-04-03T10:00:43;4.00;99.90
42615;DHT22;28754;47.700;7.924;2023-04-03T10:03:40;4.30;99.90
42615;DHT22;28754;47.700;7.924;2023-04-03T10:06:35;4.70;99.90
42615;DHT22;28754;47.700;7.924;2023-04-03T10:09:36;5.00;99.90
42615;DHT22;28754;47.700;7.924;2023-04-03T10:12:28;4.40;99.90
42615;DHT22;28754;47.700;7.924;2023-04-03T10:15:17;4.70;99.90
42615;DHT22;28754;47.700;7.924;2023-04-03T10:18:31;4.90;99.90
42615;DHT22;28754;47.700;7.924;2023-04-03T10:21:48;5.00;99.90
42615;DHT22;28754;47.700;7.924;2023-04-03T10:28:27;4.70;99.90
42615;DHT22;28754;47.700;7.924;2023-04-03T10:39:26;4.30;99.90
42615;DHT22;28754;47.700;7.924;2023-04-03T10:53:35;6.00;99.90
42615;DHT22;28754;47.700;7.924;2023-04-03T10:56:35;5.70;99.90
42615;DHT22;28754;47.700;7.924;2023-04-03T10:59:38;5.30;99.90
42615;DHT22;28754;47.700;7.924;2023-04-03T11:02:34;5.00;99.90
42615;DHT22;28754;47.700;7.924;2023-04-03T11:05:36;5.20;99.90
42615;DHT22;28754;47.700;7.924;2023-04-03T11:08:48;5.40;99.90
42615;DHT22;28754;47.700;7.924;2023-04-03T11:11:42;5.10;99.90
42615;DHT22;28754;47.700;7.924;2023-04-03T11:14:34;5.00;99.90
42615;DHT22;28754;47.700;7.924;2023-04-03T11:17:33;5.00;99.90
42615;DHT22;28754;47.700;7.924;2023-04-03T11:20:30;5.00;99.90
42615;DHT22;28754;47.700;7.924;2023-04-03T11:23:32;4.90;99.90
42615;DHT22;28754;47.700;7.924;2023-04-03T11:26:27;5.20;99.90
42615;DHT22;28754;47.700;7.924;2023-04-03T11:29:23;6.10;99.90
42615;DHT22;28754;47.700;7.924;2023-04-03T11:32:45;6.30;99.90
42615;DHT22;28754;47.700;7.924;2023-04-03T11:35:49;6.00;99.90
42615;DHT22;28754;47.700;7.924;2023-04-03T11:38:44;5.90;99.90
42615;DHT22;28754;47.700;7.924;2023-04-03T11:41:33;6.00;99.90
42615;DHT22;28754;47.700;7.924;2023-04-03T11:44:37;5.70;99.90
42615;DHT22;28754;47.700;7.924;2023-04-03T11:47:45;5.90;99.90
42615;DHT22;28754;47.700;7.924;2023-04-03T11:53:31;6.40;99.90
42615;DHT22;28754;47.700;7.924;2023-04-03T12:02:00;6.00;99.90
42615;DHT22;28754;47.700;7.924;2023-04-03T12:05:46;5.60;99.90
42615;DHT22;28754;47.700;7.924;2023-04-03T12:08:33;5.40;99.90
42615;DHT22;28754;47.700;7.924;2023-04-03T12:11:32;5.40;99.90
42615;DHT22;28754;47.700;7.924;2023-04-03T12:14:23;5.40;99.90
42615;DHT22;28754;47.700;7.924;2023-04-03T12:17:33;5.60;99.90
42615;DHT22;28754;47.700;7.924;2023-04-03T12:20:51;5.70;99.90
42615;DHT22;28754;47.700;7.924;2023-04-03T12:24:15;5.40;99.90
42615;DHT22;28754;47.700;7.924;2023-04-03T12:30:19;5.30;99.90
42615;DHT22;28754;47.700;7.924;2023-04-03T12:33:27;5.30;99.90
42615;DHT22;28754;47.700;7.924;2023-04-03T12:36:45;5.30;99.90
42615;DHT22;28754;47.700;7.924;2023-04-03T12:40:10;5.10;99.90
42615;DHT22;28754;47.700;7.924;2023-04-03T12:46:17;5.00;99.90
42615;DHT22;28754;47.700;7.924;2023-04-03T12:49:22;4.90;99.90
42615;DHT22;28754;47.700;7.924;2023-04-03T12:52:41;5.00;99.90
42615;DHT22;28754;47.700;7.924;2023-04-03T12:55:32;4.90;99.90
42615;DHT22;28754;47.700;7.924;2023-04-03T12:58:23;4.90;99.90
42615;DHT22;28754;47.700;7.924;2023-04-03T13:01:22;4.80;99.90
42615;DHT22;28754;47.700;7.924;2023-04-03T13:04:27;5.00;99.90
42615;DHT22;28754;47.700;7.924;2023-04-03T13:07:31;4.80;99.90
42615;DHT22;28754;47.700;7.924;2023-04-03T13:10:21;5.00;99.90
42615;DHT22;28754;47.700;7.924;2023-04-03T13:13:15;4.90;99.90
42615;DHT22;28754;47.700;7.924;2023-04-03T13:16:10;5.10;99.90
42615;DHT22;28754;47.700;7.924;2023-04-03T13:19:00;5.30;99.90
42615;DHT22;28754;47.700;7.924;2023-04-03T13:21:55;5.40;99.90
42615;DHT22;28754;47.700;7.924;2023-04-03T13:25:01;5.30;99.90
42615;DHT22;28754;47.700;7.924;2023-04-03T13:28:06;5.10;99.90
42615;DHT22;28754;47.700;7.924;2023-04-03T13:35:32;4.70;99.90
42615;DHT22;28754;47.700;7.924;2023-04-03T13:38:32;4.70;99.90
42615;DHT22;28754;47.700;7.924;2023-04-03T13:41:37;4.70;99.90
42615;DHT22;28754;47.700;7.924;2023-04-03T13:44:45;4.80;99.90
42615;DHT22;28754;47.700;7.924;2023-04-03T13:47:42;4.80;99.90
42615;DHT22;28754;47.700;7.924;2023-04-03T13:50:33;4.80;99.90
42615;DHT22;28754;47.700;7.924;2023-04-03T13:53:20;5.10;99.90
42615;DHT22;28754;47.700;7.924;2023-04-03T13:56:34;5.20;99.90
42615;DHT22;28754;47.700;7.924;2023-04-03T13:59:31;5.20;99.90
42615;DHT22;28754;47.700;7.924;2023-04-03T14:02:29;5.20;99.90
42615;DHT22;28754;47.700;7.924;2023-04-03T14:05:19;5.30;99.90
42615;DHT22;28754;47.700;7.924;2023-04-03T14:08:07;5.50;99.90
42615;DHT22;28754;47.700;7.924;2023-04-03T14:13:48;5.50;99.90
42615;DHT22;28754;47.700;7.924;2023-04-03T14:17:14;5.50;99.90
42615;DHT22;28754;47.700;7.924;2023-04-03T14:20:22;5.50;99.90
42615;DHT22;28754;47.700;7.924;2023-04-03T14:23:23;5.30;99.90
42615;DHT22;28754;47.700;7.924;2023-04-03T14:26:31;5.30;99.90
42615;DHT22;28754;47.700;7.924;2023-04-03T14:29:20;5.50;99.90
42615;DHT22;28754;47.700;7.924;2023-04-03T14:32:16;5.10;99.90
42615;DHT22;28754;47.700;7.924;2023-04-03T14:35:04;5.10;99.90
42615;DHT22;28754;47.700;7.924;2023-04-03T14:37:56;5.20;99.90
42615;DHT22;28754;47.700;7.924;2023-04-03T14:40:43;5.20;99.90
42615;DHT22;28754;47.700;7.924;2023-04-03T14:43:30;5.20;99.90
42615;DHT22;28754;47.700;7.924;2023-04-03T14:46:22;5.30;99.90
42615;DHT22;28754;47.700;7.924;2023-04-03T14:49:15;5.10;99.90
42615;DHT22;28754;47.700;7.924;2023-04-03T15:04:14;4.60;99.90
42615;DHT22;28754;47.700;7.924;2023-04-03T15:28:46;4.70;99.90
42615;DHT22;28754;47.700;7.924;2023-04-03T15:35:32;4.40;99.90
42615;DHT22;28754;47.700;7.924;2023-04-03T15:38:23;4.30;99.90
42615;DHT22;28754;47.700;7.924;2023-04-03T15:41:31;4.30;99.90
42615;DHT22;28754;47.700;7.924;2023-04-03T15:44:43;4.50;99.90
42615;DHT22;28754;47.700;7.924;2023-04-03T15:47:32;4.60;99.90
42615;DHT22;28754;47.700;7.924;2023-04-03T15:50:20;4.40;99.90
42615;DHT22;28754;47.700;7.924;2023-04-03T16:05:29;4.30;99.90
42615;DHT22;28754;47.700;7.924;2023-04-03T16:45:22;3.50;99.90
42615;DHT22;28754;47.700;7.924;2023-04-03T16:52:05;3.60;99.90
42615;DHT22;28754;47.700;7.924;2023-04-03T16:54:52;3.50;99.90
42615;DHT22;28754;47.700;7.924;2023-04-03T16:57:41;3.60;99.90
42615;DHT22;28754;47.700;7.924;2023-04-03T17:00:31;3.50;99.90
42615;DHT22;28754;47.700;7.924;2023-04-03T17:03:20;3.40;99.90
42615;DHT22;28754;47.700;7.924;2023-04-03T17:06:07;3.30;99.90
42615;DHT22;28754;47.700;7.924;2023-04-03T17:09:06;3.40;99.90
42615;DHT22;28754;47.700;7.924;2023-04-03T17:11:55;3.50;99.90
42615;DHT22;28754;47.700;7.924;2023-04-03T17:14:42;3.50;99.90
42615;DHT22;28754;47.700;7.924;2023-04-03T17:17:30;3.40;99.90
42615;DHT22;28754;47.700;7.924;2023-04-03T17:20:17;3.30;99.90
42615;DHT22;28754;47.700;7.924;2023-04-03T17:27:26;3.20;99.90
42615;DHT22;28754;47.700;7.924;2023-04-03T17:30:12;3.00;99.90
42615;DHT22;28754;47.700;7.924;2023-04-03T17:32:59;3.10;99.90
42615;DHT22;28754;47.700;7.924;2023-04-03T17:35:46;3.10;99.90
42615;DHT22;28754;47.700;7.924;2023-04-03T17:38:33;3.30;99.90
42615;DHT22;28754;47.700;7.924;2023-04-03T17:41:20;3.20;99.90
42615;DHT22;28754;47.700;7.924;2023-04-03T17:44:07;3.10;99.90
42615;DHT22;28754;47.700;7.924;2023-04-03T17:46:54;3.00;99.90
42615;DHT22;28754;47.700;7.924;2023-04-03T17:49:40;2.70;99.90
42615;DHT22;28754;47.700;7.924;2023-04-03T17:52:27;2.60;99.90
42615;DHT22;28754;47.700;7.924;2023-04-03T17:55:14;2.50;99.90
42615;DHT22;28754;47.700;7.924;2023-04-03T17:58:02;2.30;99.90
42615;DHT22;28754;47.700;7.924;2023-04-03T18:00:54;2.30;99.90
42615;DHT22;28754;47.700;7.924;2023-04-03T18:04:08;2.30;99.90
42615;DHT22;28754;47.700;7.924;2023-04-03T18:08:10;2.20;99.90
42615;DHT22;28754;47.700;7.924;2023-04-03T18:14:03;2.10;99.90
42615;DHT22;28754;47.700;7.924;2023-04-03T18:34:35;2.10;99.90
42615;DHT22;28754;47.700;7.924;2023-04-03T18:50:38;1.90;99.90
42615;DHT22;28754;47.700;7.924;2023-04-03T18:53:27;1.80;99.90
42615;DHT22;28754;47.700;7.924;2023-04-03T18:56:14;1.80;99.90
42615;DHT22;28754;47.700;7.924;2023-04-03T18:59:53;1.90;99.90
42615;DHT22;28754;47.700;7.924;2023-04-03T19:03:18;1.70;99.90
42615;DHT22;28754;47.700;7.924;2023-04-03T19:07:09;1.70;99.90
42615;DHT22;28754;47.700;7.924;2023-04-03T19:10:10;1.70;99.90
42615;DHT22;28754;47.700;7.924;2023-04-03T19:14:27;1.70;99.90
42615;DHT22;28754;47.700;7.924;2023-04-03T19:17:54;1.60;99.90
42615;DHT22;28754;47.700;7.924;2023-04-03T19:21:21;1.50;99.90
42615;DHT22;28754;47.700;7.924;2023-04-03T19:24:19;1.50;99.90
42615;DHT22;28754;47.700;7.924;2023-04-03T19:27:07;1.50;99.90
42615;DHT22;28754;47.700;7.924;2023-04-03T19:29:54;1.50;99.90
42615;DHT22;28754;47.700;7.924;2023-04-03T19:32:43;1.40;99.90
42615;DHT22;28754;47.700;7.924;2023-04-03T19:35:39;1.40;99.90
42615;DHT22;28754;47.700;7.924;2023-04-03T19:38:27;1.40;99.90
42615;DHT22;28754;47.700;7.924;2023-04-03T19:41:17;1.40;99.90
42615;DHT22;28754;47.700;7.924;2023-04-03T19:44:06;1.40;99.90
42615;DHT22;28754;47.700;7.924;2023-04-03T19:46:53;1.40;99.90
42615;DHT22;28754;47.700;7.924;2023-04-03T19:49:40;1.40;99.90
42615;DHT22;28754;47.700;7.924;2023-04-03T19:52:30;1.30;99.90
42615;DHT22;28754;47.700;7.924;2023-04-03T19:55:17;1.30;99.90
42615;DHT22;28754;47.700;7.924;2023-04-03T19:58:04;1.30;99.90
42615;DHT22;28754;47.700;7.924;2023-04-03T20:00:51;1.20;99.90
42615;DHT22;28754;47.700;7.924;2023-04-03T20:03:40;1.20;99.90
42615;DHT22;28754;47.700;7.924;2023-04-03T20:06:27;1.20;99.90
42615;DHT22;28754;47.700;7.924;2023-04-03T20:09:14;1.10;99.90
42615;DHT22;28754;47.700;7.924;2023-04-03T20:12:05;1.10;99.90
42615;DHT22;28754;47.700;7.924;2023-04-03T20:14:54;1.10;99.90
42615;DHT22;28754;47.700;7.924;2023-04-03T20:17:43;1.10;99.90
42615;DHT22;28754;47.700;7.924;2023-04-03T20:20:30;1.10;99.90
42615;DHT22;28754;47.700;7.924;2023-04-03T20:23:17;1.00;99.90
42615;DHT22;28754;47.700;7.924;2023-04-03T20:26:05;1.00;99.90
42615;DHT22;28754;47.700;7.924;2023-04-03T20:28:57;1.00;99.90
42615;DHT22;28754;47.700;7.924;2023-04-03T20:31:45;1.00;99.90
42615;DHT22;28754;47.700;7.924;2023-04-03T20:34:39;0.90;99.90
42615;DHT22;28754;47.700;7.924;2023-04-03T20:37:26;1.00;99.90
42615;DHT22;28754;47.700;7.924;2023-04-03T20:40:13;1.00;99.90
42615;DHT22;28754;47.700;7.924;2023-04-03T20:43:03;0.90;99.90
42615;DHT22;28754;47.700;7.924;2023-04-03T20:45:53;0.90;99.90
42615;DHT22;28754;47.700;7.924;2023-04-03T20:48:41;0.90;99.90
42615;DHT22;28754;47.700;7.924;2023-04-03T20:51:35;0.90;99.90
42615;DHT22;28754;47.700;7.924;2023-04-03T20:54:22;0.90;99.90
42615;DHT22;28754;47.700;7.924;2023-04-03T20:57:10;1.00;99.90
42615;DHT22;28754;47.700;7.924;2023-04-03T20:59:57;0.90;99.90
42615;DHT22;28754;47.700;7.924;2023-04-03T21:02:45;0.90;99.90
42615;DHT22;28754;47.700;7.924;2023-04-03T21:05:34;0.90;99.90
42615;DHT22;28754;47.700;7.924;2023-04-03T21:22:05;0.80;99.90
42615;DHT22;28754;47.700;7.924;2023-04-03T21:24:52;0.80;99.90
42615;DHT22;28754;47.700;7.924;2023-04-03T21:27:39;0.80;99.90
42615;DHT22;28754;47.700;7.924;2023-04-03T21:30:26;0.80;99.90
42615;DHT22;28754;47.700;7.924;2023-04-03T21:33:12;0.80;99.90
42615;DHT22;28754;47.700;7.924;2023-04-03T21:35:59;0.80;99.90
42615;DHT22;28754;47.700;7.924;2023-04-03T21:38:45;0.70;99.90
42615;DHT22;28754;47.700;7.924;2023-04-03T21:41:32;0.70;99.90
42615;DHT22;28754;47.700;7.924;2023-04-03T21:44:19;0.70;99.90
42615;DHT22;28754;47.700;7.924;2023-04-03T21:47:07;0.70;99.90
42615;DHT22;28754;47.700;7.924;2023-04-03T21:49:54;0.60;99.90
42615;DHT22;28754;47.700;7.924;2023-04-03T21:52:41;0.60;99.90
42615;DHT22;28754;47.700;7.924;2023-04-03T21:55:27;0.60;99.90
42615;DHT22;28754;47.700;7.924;2023-04-03T21:58:15;0.60;99.90
42615;DHT22;28754;47.700;7.924;2023-04-03T22:01:12;0.60;99.90
42615;DHT22;28754;47.700;7.924;2023-04-03T22:04:00;0.60;99.90
42615;DHT22;28754;47.700;7.924;2023-04-03T22:06:49;0.50;99.90
42615;DHT22;28754;47.700;7.924;2023-04-03T22:09:36;0.50;99.90
42615;DHT22;28754;47.700;7.924;2023-04-03T22:12:22;0.50;99.90
42615;DHT22;28754;47.700;7.924;2023-04-03T22:15:09;0.50;99.90
42615;DHT22;28754;47.700;7.924;2023-04-03T22:17:56;0.50;99.90
42615;DHT22;28754;47.700;7.924;2023-04-03T22:20:44;0.40;99.90
42615;DHT22;28754;47.700;7.924;2023-04-03T22:23:30;0.40;99.90
42615;DHT22;28754;47.700;7.924;2023-04-03T22:26:18;0.40;99.90
42615;DHT22;28754;47.700;7.924;2023-04-03T22:29:04;0.30;99.90
42615;DHT22;28754;47.700;7.924;2023-04-03T22:31:51;0.30;99.90
42615;DHT22;28754;47.700;7.924;2023-04-03T22:34:37;0.30;99.90
42615;DHT22;28754;47.700;7.924;2023-04-03T22:37:25;0.30;99.90
42615;DHT22;28754;47.700;7.924;2023-04-03T22:40:12;0.30;99.90
42615;DHT22;28754;47.700;7.924;2023-04-03T22:42:59;0.20;99.90
42615;DHT22;28754;47.700;7.924;2023-04-03T22:45:48;0.20;99.90
42615;DHT22;28754;47.700;7.924;2023-04-03T22:48:36;0.20;99.90
42615;DHT22;28754;47.700;7.924;2023-04-03T22:51:27;0.20;99.90
42615;DHT22;28754;47.700;7.924;2023-04-03T22:54:14;0.20;99.90
42615;DHT22;28754;47.700;7.924;2023-04-03T22:57:00;0.20;99.90
42615;DHT22;28754;47.700;7.924;2023-04-03T22:59:47;0.10;99.90
42615;DHT22;28754;47.700;7.924;2023-04-03T23:02:34;0.20;99.90
42615;DHT22;28754;47.700;7.924;2023-04-03T23:05:21;0.10;99.90
42615;DHT22;28754;47.700;7.924;2023-04-03T23:08:07;0.10;99.90
42615;DHT22;28754;47.700;7.924;2023-04-03T23:10:58;0.10;99.90
42615;DHT22;28754;47.700;7.924;2023-04-03T23:13:44;0.10;99.90
42615;DHT22;28754;47.700;7.924;2023-04-03T23:16:31;0.10;99.90
42615;DHT22;28754;47.700;7.924;2023-04-03T23:19:18;0.00;99.90
42615;DHT22;28754;47.700;7.924;2023-04-03T23:22:04;0.00;99.90
42615;DHT22;28754;47.700;7.924;2023-04-03T23:24:51;0.00;99.90
42615;DHT22;28754;47.700;7.924;2023-04-03T23:27:38;0.00;99.90
42615;DHT22;28754;47.700;7.924;2023-04-03T23:30:25;0.00;99.90
42615;DHT22;28754;47.700;7.924;2023-04-03T23:33:11;-0.10;99.90
42615;DHT22;28754;47.700;7.924;2023-04-03T23:35:59;-0.10;99.90
42615;DHT22;28754;47.700;7.924;2023-04-03T23:38:55;-0.10;99.90
42615;DHT22;28754;47.700;7.924;2023-04-03T23:41:42;-0.10;99.90
42615;DHT22;28754;47.700;7.924;2023-04-03T23:44:28;-0.20;99.90
42615;DHT22;28754;47.700;7.924;2023-04-03T23:47:16;-0.20;99.90
42615;DHT22;28754;47.700;7.924;2023-04-03T23:50:02;-0.20;99.90
42615;DHT22;28754;47.700;7.924;2023-04-03T23:52:49;-0.30;99.90
42615;DHT22;28754;47.700;7.924;2023-04-03T23:55:36;-0.30;99.90
42615;DHT22;28754;47.700;7.924;2023-04-03T23:58:23;-0.30;99.90
